createdAt,value
2022-10-21T00:02:20.635Z,15.71
2022-10-21T00:04:48.268Z,15.66
2022-10-21T00:07:15.899Z,15.59
2022-10-21T00:09:43.817Z,15.62
2022-10-21T00:12:12.738Z,15.79
2022-10-21T00:14:40.341Z,15.83
2022-10-21T00:17:08.137Z,15.83
2022-10-21T00:19:35.804Z,15.90
2022-10-21T00:22:03.485Z,15.89
2022-10-21T00:24:31.056Z,15.90
2022-10-21T00:26:58.621Z,15.76
2022-10-21T00:29:27.635Z,15.77
2022-10-21T00:31:56.992Z,15.80
2022-10-21T00:34:28.455Z,15.68
2022-10-21T00:36:58.298Z,15.76
2022-10-21T00:39:25.901Z,15.82
2022-10-21T00:41:53.629Z,15.72
2022-10-21T00:44:21.233Z,15.56
2022-10-21T00:46:55.051Z,15.47
2022-10-21T00:49:28.214Z,15.42
2022-10-21T00:52:00.323Z,15.47
2022-10-21T00:54:31.070Z,15.51
2022-10-21T00:57:00.393Z,15.50
2022-10-21T00:59:32.309Z,15.44
2022-10-21T01:02:01.330Z,15.38
2022-10-21T01:04:29.354Z,15.36
2022-10-21T01:06:58.101Z,15.36
2022-10-21T01:09:26.431Z,15.35
2022-10-21T01:12:00.319Z,15.34
2022-10-21T01:14:47.638Z,15.32
2022-10-21T01:17:45.766Z,15.33
2022-10-21T01:20:36.983Z,15.30
2022-10-21T01:23:36.625Z,15.32
2022-10-21T01:26:27.217Z,15.33
2022-10-21T01:29:15.950Z,15.36
2022-10-21T01:31:47.977Z,15.36
2022-10-21T01:34:24.552Z,15.37
2022-10-21T01:36:57.837Z,15.37
2022-10-21T01:39:30.231Z,15.38
2022-10-21T01:42:05.954Z,15.39
2022-10-21T01:44:41.131Z,15.39
2022-10-21T01:47:15.791Z,15.48
2022-10-21T01:49:48.064Z,15.48
2022-10-21T01:52:16.677Z,15.47
2022-10-21T01:54:46.270Z,15.46
2022-10-21T01:57:17.699Z,15.44
2022-10-21T01:59:47.557Z,15.40
2022-10-21T02:02:17.503Z,15.34
2022-10-21T02:04:48.803Z,15.31
2022-10-21T02:07:16.419Z,15.27
2022-10-21T02:09:44.053Z,15.26
2022-10-21T02:12:12.067Z,15.24
2022-10-21T02:14:44.532Z,15.24
2022-10-21T02:17:15.223Z,15.23
2022-10-21T02:19:44.487Z,15.26
2022-10-21T02:22:15.633Z,15.28
2022-10-21T02:24:49.601Z,15.25
2022-10-21T02:27:17.254Z,15.23
2022-10-21T02:29:46.681Z,15.21
2022-10-21T02:32:26.071Z,15.18
2022-10-21T02:35:09.306Z,15.18
2022-10-21T02:37:44.233Z,15.18
2022-10-21T02:40:18.375Z,15.16
2022-10-21T02:42:51.319Z,15.15
2022-10-21T02:45:20.146Z,15.14
2022-10-21T02:47:49.142Z,15.18
2022-10-21T02:50:18.207Z,15.21
2022-10-21T02:52:46.203Z,15.61
2022-10-21T02:55:13.860Z,15.92
2022-10-21T02:57:41.736Z,16.14
2022-10-21T03:00:10.425Z,16.15
2022-10-21T03:02:38.060Z,15.98
2022-10-21T03:05:06.469Z,15.70
2022-10-21T03:07:35.698Z,15.47
2022-10-21T03:10:03.381Z,15.35
2022-10-21T03:12:30.986Z,15.28
2022-10-21T03:14:58.518Z,15.24
2022-10-21T03:17:26.264Z,15.20
2022-10-21T03:19:53.941Z,15.16
2022-10-21T03:22:21.544Z,15.16
2022-10-21T03:24:50.444Z,15.18
2022-10-21T03:27:18.080Z,15.25
2022-10-21T03:29:45.704Z,15.21
2022-10-21T03:32:13.266Z,15.27
2022-10-21T03:34:40.890Z,15.41
2022-10-21T03:37:08.832Z,15.75
2022-10-21T03:39:36.382Z,16.18
2022-10-21T03:42:05.401Z,16.26
2022-10-21T03:44:32.984Z,16.21
2022-10-21T03:47:00.623Z,16.11
2022-10-21T03:49:28.255Z,16.05
2022-10-21T03:51:55.833Z,15.99
2022-10-21T03:54:23.552Z,16.08
2022-10-21T03:56:51.129Z,16.07
2022-10-21T03:59:20.452Z,16.14
2022-10-21T04:01:48.131Z,16.18
2022-10-21T04:04:15.723Z,16.10
2022-10-21T04:06:43.321Z,16.03
2022-10-21T04:09:10.996Z,15.98
2022-10-21T04:11:38.676Z,15.96
2022-10-21T04:14:07.119Z,16.01
2022-10-21T04:16:38.343Z,15.89
2022-10-21T04:19:05.897Z,15.78
2022-10-21T04:21:33.671Z,15.71
2022-10-21T04:24:01.279Z,15.58
2022-10-21T04:26:28.874Z,15.50
2022-10-21T04:28:56.796Z,15.44
2022-10-21T04:31:27.478Z,15.43
2022-10-21T04:34:00.087Z,15.63
2022-10-21T04:36:27.724Z,15.85
2022-10-21T04:38:55.324Z,15.81
2022-10-21T04:41:23.274Z,15.92
2022-10-21T04:43:50.875Z,16.00
2022-10-21T04:46:20.741Z,16.31
2022-10-21T04:48:48.665Z,16.41
2022-10-21T04:51:17.566Z,16.13
2022-10-21T04:53:45.136Z,16.16
2022-10-21T04:56:12.771Z,16.35
2022-10-21T04:58:40.500Z,16.39
2022-10-21T05:01:08.156Z,16.21
2022-10-21T05:03:36.309Z,16.34
2022-10-21T05:06:04.007Z,16.37
2022-10-21T05:08:33.008Z,16.38
2022-10-21T05:11:01.655Z,16.42
2022-10-21T05:13:29.769Z,16.30
2022-10-21T05:15:59.410Z,16.30
2022-10-21T05:18:27.415Z,16.11
2022-10-21T05:20:56.454Z,15.92
2022-10-21T05:23:24.584Z,15.70
2022-10-21T05:25:53.867Z,15.57
2022-10-21T05:28:22.194Z,15.49
2022-10-21T05:30:49.931Z,15.43
2022-10-21T05:33:17.538Z,15.37
2022-10-21T05:35:45.342Z,15.34
2022-10-21T05:38:12.947Z,15.29
2022-10-21T05:40:40.567Z,15.26
2022-10-21T05:43:09.491Z,15.25
2022-10-21T05:45:37.075Z,15.33
2022-10-21T05:48:05.143Z,15.41
2022-10-21T05:50:32.728Z,15.40
2022-10-21T05:53:00.299Z,15.35
2022-10-21T05:55:28.106Z,15.33
2022-10-21T05:57:58.787Z,15.31
2022-10-21T06:00:28.455Z,15.31
2022-10-21T06:02:56.080Z,15.28
2022-10-21T06:05:23.716Z,15.26
2022-10-21T06:07:51.277Z,15.25
2022-10-21T06:10:19.041Z,15.23
2022-10-21T06:12:46.664Z,15.24
2022-10-21T06:15:14.345Z,15.27
2022-10-21T06:17:43.295Z,15.26
2022-10-21T06:20:11.426Z,15.24
2022-10-21T06:22:39.051Z,15.21
2022-10-21T06:25:07.070Z,15.18
2022-10-21T06:27:34.694Z,15.17
2022-10-21T06:30:02.267Z,15.15
2022-10-21T06:32:30.025Z,15.13
2022-10-21T06:34:58.951Z,15.11
2022-10-21T06:37:26.555Z,15.11
2022-10-21T06:39:54.111Z,15.13
2022-10-21T06:42:21.679Z,15.14
2022-10-21T06:44:49.240Z,15.17
2022-10-21T06:47:17.181Z,15.19
2022-10-21T06:49:44.765Z,15.20
2022-10-21T06:52:13.715Z,15.25
2022-10-21T06:54:41.326Z,15.30
2022-10-21T06:57:08.881Z,15.32
2022-10-21T06:59:36.478Z,15.34
2022-10-21T07:02:04.090Z,15.36
2022-10-21T07:04:31.648Z,15.36
2022-10-21T07:06:59.394Z,15.36
2022-10-21T07:09:28.434Z,15.39
2022-10-21T07:11:56.332Z,15.40
2022-10-21T07:14:25.217Z,15.41
2022-10-21T07:16:53.868Z,15.41
2022-10-21T07:19:21.452Z,15.44
2022-10-21T07:21:49.209Z,15.44
2022-10-21T07:24:22.158Z,15.45
2022-10-21T07:26:52.138Z,15.48
2022-10-21T07:29:20.118Z,15.44
2022-10-21T07:31:47.708Z,15.44
2022-10-21T07:34:15.655Z,15.44
2022-10-21T07:36:47.859Z,15.44
2022-10-21T07:39:18.328Z,15.44
2022-10-21T07:41:47.643Z,15.44
2022-10-21T07:44:17.961Z,15.48
2022-10-21T07:46:46.377Z,15.55
2022-10-21T07:49:14.818Z,15.61
2022-10-21T07:51:42.946Z,15.60
2022-10-21T07:54:10.734Z,15.61
2022-10-21T07:56:42.200Z,15.58
2022-10-21T07:59:13.090Z,15.61
2022-10-21T08:04:22.479Z,15.85
2022-10-21T08:06:50.535Z,15.82
2022-10-21T08:09:18.637Z,15.77
2022-10-21T08:11:46.774Z,15.81
2022-10-21T08:14:14.592Z,15.81
2022-10-21T08:16:46.343Z,15.82
2022-10-21T08:19:19.849Z,15.83
2022-10-21T08:21:47.500Z,15.84
2022-10-21T08:24:15.070Z,15.85
2022-10-21T08:26:42.632Z,15.92
2022-10-21T08:29:10.234Z,15.92
2022-10-21T08:31:38.254Z,15.94
2022-10-21T08:34:07.229Z,15.95
2022-10-21T08:36:35.177Z,16.04
2022-10-21T08:39:02.787Z,16.07
2022-10-21T08:41:53.281Z,16.06
2022-10-21T08:44:33.546Z,16.06
2022-10-21T08:49:50.924Z,16.09
2022-10-21T08:52:22.164Z,16.11
2022-10-21T08:54:55.433Z,16.12
2022-10-21T08:57:24.067Z,16.14
2022-10-21T08:59:51.734Z,16.16
2022-10-21T09:02:32.688Z,16.25
2022-10-21T09:05:20.544Z,16.24
2022-10-21T09:07:57.609Z,16.25
2022-10-21T09:10:34.631Z,16.24
2022-10-21T09:13:12.932Z,16.29
2022-10-21T09:15:54.567Z,16.28
2022-10-21T09:18:35.695Z,16.28
2022-10-21T09:21:12.021Z,16.27
2022-10-21T09:23:48.817Z,16.29
2022-10-21T09:26:38.788Z,16.29
2022-10-21T09:29:20.573Z,16.29
2022-10-21T09:31:55.115Z,16.30
2022-10-21T09:34:36.133Z,16.31
2022-10-21T09:37:12.763Z,16.33
2022-10-21T09:39:45.626Z,16.36
2022-10-21T09:42:35.400Z,16.37
2022-10-21T09:45:01.740Z,16.36
2022-10-21T09:47:29.344Z,16.38
2022-10-21T09:50:07.412Z,16.42
2022-10-21T09:52:38.532Z,16.43
2022-10-21T09:55:07.382Z,16.85
2022-10-21T09:57:45.631Z,17.10
2022-10-21T10:00:14.195Z,17.04
2022-10-21T10:02:44.167Z,16.92
2022-10-21T10:05:38.483Z,16.82
2022-10-21T10:08:30.407Z,16.62
2022-10-21T10:11:14.099Z,16.72
2022-10-21T10:13:43.895Z,16.45
2022-10-21T10:16:23.158Z,16.28
2022-10-21T10:18:52.421Z,16.37
2022-10-21T10:21:21.562Z,16.52
2022-10-21T10:23:52.390Z,16.40
2022-10-21T10:26:24.842Z,16.50
2022-10-21T10:28:56.189Z,16.30
2022-10-21T10:31:28.723Z,16.44
2022-10-21T10:33:59.297Z,16.39
2022-10-21T10:36:30.694Z,16.45
2022-10-21T10:39:02.809Z,16.30
2022-10-21T10:41:34.789Z,16.17
2022-10-21T10:44:08.775Z,16.37
2022-10-21T10:46:38.628Z,16.18
2022-10-21T10:49:17.845Z,16.22
2022-10-21T10:51:47.707Z,16.22
2022-10-21T10:54:22.634Z,16.13
2022-10-21T10:56:55.928Z,16.14
2022-10-21T10:59:29.755Z,16.62
2022-10-21T11:02:09.184Z,16.46
2022-10-21T11:04:40.845Z,16.65
2022-10-21T11:07:25.013Z,16.65
2022-10-21T11:09:59.801Z,16.69
2022-10-21T11:12:27.859Z,16.61
2022-10-21T11:14:57.668Z,16.64
2022-10-21T11:17:30.751Z,16.61
2022-10-21T11:20:07.453Z,16.72
2022-10-21T11:22:46.162Z,16.72
2022-10-21T11:25:23.244Z,16.61
2022-10-21T11:28:14.288Z,16.46
2022-10-21T11:31:01.022Z,16.36
2022-10-21T11:33:39.018Z,16.35
2022-10-21T11:36:14.053Z,16.40
2022-10-21T11:38:56.106Z,16.35
2022-10-21T11:41:33.650Z,16.33
2022-10-21T11:44:16.284Z,16.40
2022-10-21T11:46:55.870Z,16.43
2022-10-21T11:49:52.316Z,16.51
2022-10-21T11:52:33.834Z,16.51
2022-10-21T11:55:16.362Z,16.65
2022-10-21T11:57:53.418Z,16.71
2022-10-21T12:00:23.747Z,16.78
2022-10-21T12:03:14.639Z,16.76
2022-10-21T12:05:50.884Z,16.87
2022-10-21T12:08:27.205Z,16.87
2022-10-21T12:10:59.458Z,16.89
2022-10-21T12:13:32.034Z,16.91
2022-10-21T12:16:01.792Z,16.94
2022-10-21T12:18:31.512Z,16.96
2022-10-21T12:21:01.406Z,16.97
2022-10-21T12:23:32.499Z,17.00
2022-10-21T12:26:19.484Z,17.07
2022-10-21T12:28:56.802Z,17.12
2022-10-21T12:31:35.170Z,17.16
2022-10-21T12:34:03.869Z,17.22
2022-10-21T12:36:40.529Z,17.29
2022-10-21T12:39:13.257Z,17.31
2022-10-21T12:41:41.461Z,17.36
2022-10-21T12:44:23.403Z,17.44
2022-10-21T12:46:53.815Z,17.46
2022-10-21T12:49:28.339Z,17.54
2022-10-21T12:52:03.353Z,17.55
2022-10-21T12:54:41.893Z,17.52
2022-10-21T12:57:11.380Z,17.60
2022-10-21T12:59:43.745Z,17.68
2022-10-21T13:02:24.562Z,17.67
2022-10-21T13:04:57.903Z,17.70
2022-10-21T13:07:32.133Z,17.74
2022-10-21T13:10:26.541Z,17.75
2022-10-21T13:13:38.281Z,17.76
2022-10-21T13:16:37.866Z,17.74
2022-10-21T13:19:27.038Z,17.78
2022-10-21T13:22:03.195Z,17.78
2022-10-21T13:24:33.634Z,17.80
2022-10-21T13:27:03.647Z,17.82
2022-10-21T13:29:41.307Z,17.83
2022-10-21T13:32:35.130Z,17.80
2022-10-21T13:35:29.383Z,17.83
2022-10-21T13:38:00.415Z,17.74
2022-10-21T13:40:33.406Z,17.76
2022-10-21T13:43:03.846Z,17.76
2022-10-21T13:45:35.354Z,17.70
2022-10-21T13:48:07.653Z,17.57
2022-10-21T13:50:40.321Z,17.52
2022-10-21T13:53:24.986Z,17.40
2022-10-21T13:55:58.392Z,17.33
2022-10-21T13:58:30.738Z,17.27
2022-10-21T14:01:02.095Z,17.22
2022-10-21T14:03:31.111Z,17.13
2022-10-21T14:06:02.742Z,17.10
2022-10-21T14:08:33.488Z,17.08
2022-10-21T14:11:03.665Z,17.11
2022-10-21T14:13:36.829Z,17.15
2022-10-21T14:16:05.685Z,17.13
2022-10-21T14:18:37.571Z,17.10
2022-10-21T14:21:07.000Z,17.12
2022-10-21T14:23:35.364Z,17.10
2022-10-21T14:26:07.116Z,17.18
2022-10-21T14:28:37.201Z,17.23
2022-10-21T14:33:45.412Z,17.18
2022-10-21T14:36:16.136Z,17.16
2022-10-21T14:38:51.750Z,17.21
2022-10-21T14:41:23.729Z,17.25
2022-10-21T14:43:52.941Z,17.20
2022-10-21T14:46:21.657Z,17.22
2022-10-21T14:48:54.756Z,17.26
2022-10-21T14:51:23.910Z,17.19
2022-10-21T14:53:55.896Z,17.15
2022-10-21T14:56:29.204Z,17.14
2022-10-21T14:59:01.164Z,17.07
2022-10-21T15:01:28.950Z,17.10
2022-10-21T15:03:59.457Z,17.16
2022-10-21T15:06:28.532Z,17.16
2022-10-21T15:09:23.131Z,17.15
2022-10-21T15:11:50.771Z,17.11
2022-10-21T15:14:23.864Z,17.06
2022-10-21T15:16:53.993Z,17.02
2022-10-21T15:19:25.668Z,17.01
2022-10-21T15:21:57.138Z,17.07
2022-10-21T15:24:30.757Z,17.13
2022-10-21T15:27:00.955Z,17.08
2022-10-21T15:29:36.492Z,17.09
2022-10-21T15:32:05.579Z,17.11
2022-10-21T15:34:34.638Z,17.07
2022-10-21T15:37:02.290Z,17.00
2022-10-21T15:39:30.248Z,16.99
2022-10-21T15:41:58.976Z,17.02
2022-10-21T15:44:29.053Z,17.03
2022-10-21T15:47:00.770Z,17.07
2022-10-21T15:49:32.669Z,17.07
2022-10-21T15:52:02.060Z,17.06
2022-10-21T15:54:29.663Z,17.11
2022-10-21T15:56:58.803Z,17.09
2022-10-21T15:59:28.853Z,17.11
2022-10-21T16:01:57.141Z,17.18
2022-10-21T16:04:24.885Z,17.20
2022-10-21T16:06:53.599Z,17.10
2022-10-21T16:09:24.055Z,17.10
2022-10-21T16:12:02.253Z,17.01
2022-10-21T16:14:31.220Z,16.88
2022-10-21T16:17:00.851Z,16.85
2022-10-21T16:19:29.474Z,16.81
2022-10-21T16:21:57.614Z,16.88
2022-10-21T16:24:26.514Z,16.90
2022-10-21T16:26:54.102Z,16.92
2022-10-21T16:29:23.924Z,16.95
2022-10-21T16:31:52.709Z,16.95
2022-10-21T16:34:20.907Z,16.94
2022-10-21T16:36:48.663Z,16.94
2022-10-21T16:39:18.581Z,17.00
2022-10-21T16:41:47.542Z,17.01
2022-10-21T16:44:15.781Z,17.09
2022-10-21T16:46:49.816Z,17.08
2022-10-21T16:49:21.994Z,17.04
2022-10-21T16:51:49.905Z,16.98
2022-10-21T16:54:17.804Z,16.97
2022-10-21T16:56:46.815Z,16.91
2022-10-21T16:59:14.439Z,16.89
2022-10-21T17:01:42.297Z,16.94
2022-10-21T17:04:14.274Z,16.95
2022-10-21T17:06:42.063Z,16.92
2022-10-21T17:09:09.701Z,16.91
2022-10-21T17:11:40.039Z,16.82
2022-10-21T17:14:14.570Z,16.89
2022-10-21T17:16:46.689Z,16.91
2022-10-21T17:19:16.819Z,16.94
2022-10-21T17:21:45.458Z,16.97
2022-10-21T17:24:16.148Z,16.91
2022-10-21T17:26:44.739Z,16.86
2022-10-21T17:29:14.326Z,16.85
2022-10-21T17:31:43.801Z,16.86
2022-10-21T17:34:25.720Z,16.87
2022-10-21T17:36:53.707Z,16.87
2022-10-21T17:39:21.409Z,16.89
2022-10-21T17:41:49.847Z,16.96
2022-10-21T17:44:19.090Z,16.97
2022-10-21T17:46:47.569Z,16.89
2022-10-21T17:49:15.160Z,16.84
2022-10-21T17:51:42.710Z,16.76
2022-10-21T17:54:10.938Z,16.78
2022-10-21T17:56:38.607Z,16.78
2022-10-21T17:59:06.194Z,16.79
2022-10-21T18:01:35.420Z,16.79
2022-10-21T18:04:03.085Z,16.73
2022-10-21T18:06:30.752Z,16.69
2022-10-21T18:08:59.143Z,16.67
2022-10-21T18:11:27.597Z,16.59
2022-10-21T18:13:55.405Z,16.52
2022-10-21T18:16:24.968Z,16.50
2022-10-21T18:18:57.236Z,16.43
2022-10-21T18:21:28.376Z,16.47
2022-10-21T18:23:55.988Z,16.51
2022-10-21T18:26:26.105Z,16.51
2022-10-21T18:28:56.998Z,16.55
2022-10-21T18:31:28.076Z,16.57
2022-10-21T18:33:58.648Z,16.59
2022-10-21T18:36:26.666Z,16.62
2022-10-21T18:38:55.012Z,16.64
2022-10-21T18:41:22.797Z,16.63
2022-10-21T18:43:52.601Z,16.60
2022-10-21T18:46:21.286Z,16.54
2022-10-21T18:48:49.194Z,16.55
2022-10-21T18:51:19.756Z,16.58
2022-10-21T18:53:50.121Z,16.60
2022-10-21T18:56:21.142Z,16.60
2022-10-21T18:58:49.087Z,16.58
2022-10-21T19:01:18.522Z,16.52
2022-10-21T19:03:46.999Z,16.52
2022-10-21T19:06:29.502Z,16.50
2022-10-21T19:08:57.682Z,16.55
2022-10-21T19:11:25.641Z,16.51
2022-10-21T19:13:53.248Z,16.55
2022-10-21T19:16:20.821Z,16.50
2022-10-21T19:18:48.440Z,16.47
2022-10-21T19:21:19.875Z,16.48
2022-10-21T19:23:47.754Z,16.54
2022-10-21T19:26:17.834Z,16.59
2022-10-21T19:28:48.121Z,16.59
2022-10-21T19:31:16.906Z,16.56
2022-10-21T19:33:44.829Z,16.45
2022-10-21T19:36:12.612Z,16.41
2022-10-21T19:38:44.995Z,16.42
2022-10-21T19:41:16.487Z,16.48
2022-10-21T19:43:44.170Z,16.50
2022-10-21T19:46:18.887Z,16.42
2022-10-21T19:48:49.227Z,16.45
2022-10-21T19:51:19.190Z,16.55
2022-10-21T19:53:48.569Z,16.58
2022-10-21T19:56:18.825Z,16.53
2022-10-21T19:58:49.732Z,16.44
2022-10-21T20:01:19.913Z,16.47
2022-10-21T20:03:48.651Z,16.42
2022-10-21T20:06:19.707Z,16.41
2022-10-21T20:08:48.817Z,16.40
2022-10-21T20:11:18.675Z,16.44
2022-10-21T20:13:46.628Z,16.46
2022-10-21T20:16:16.942Z,16.48
2022-10-21T20:18:44.783Z,16.51
2022-10-21T20:21:12.575Z,16.55
2022-10-21T20:23:40.418Z,16.56
2022-10-21T20:26:09.424Z,16.63
2022-10-21T20:28:37.762Z,16.70
2022-10-21T20:31:07.634Z,16.73
2022-10-21T20:33:42.220Z,16.68
2022-10-21T20:36:13.419Z,16.68
2022-10-21T20:38:41.601Z,16.69
2022-10-21T20:41:14.263Z,16.69
2022-10-21T20:43:42.908Z,16.66
2022-10-21T20:46:13.348Z,16.69
2022-10-21T20:48:42.942Z,16.71
2022-10-21T20:51:14.907Z,16.75
2022-10-21T20:53:45.859Z,16.79
2022-10-21T20:56:15.128Z,16.81
2022-10-21T20:58:43.662Z,16.82
2022-10-21T21:01:13.503Z,16.81
2022-10-21T21:03:42.745Z,16.83
2022-10-21T21:06:11.095Z,16.82
2022-10-21T21:08:48.636Z,16.81
2022-10-21T21:11:33.188Z,16.81
2022-10-21T21:14:02.787Z,16.84
2022-10-21T21:16:30.712Z,16.88
2022-10-21T21:19:02.771Z,16.89
2022-10-21T21:21:34.869Z,16.91
2022-10-21T21:24:03.268Z,16.96
2022-10-21T21:26:34.332Z,16.98
2022-10-21T21:29:02.324Z,17.01
2022-10-21T21:31:31.017Z,16.92
2022-10-21T21:33:59.167Z,16.90
2022-10-21T21:36:27.009Z,16.84
2022-10-21T21:38:59.238Z,16.81
2022-10-21T21:42:20.188Z,16.79
2022-10-21T21:44:48.091Z,16.74
2022-10-21T21:47:19.908Z,16.72
2022-10-21T21:50:30.533Z,16.71
2022-10-21T21:53:00.764Z,16.71
2022-10-21T21:55:54.683Z,16.70
2022-10-21T21:58:25.184Z,16.70
2022-10-21T22:00:52.775Z,16.69
2022-10-21T22:03:21.660Z,16.70
2022-10-21T22:05:49.408Z,16.65
2022-10-21T22:08:17.023Z,16.49
2022-10-21T22:10:44.637Z,16.54
2022-10-21T22:13:12.750Z,16.52
2022-10-21T22:15:47.981Z,16.51
2022-10-21T22:18:16.378Z,16.51
2022-10-21T22:20:44.328Z,16.47
2022-10-21T22:23:11.938Z,16.47
2022-10-21T22:25:39.918Z,16.52
2022-10-21T22:28:07.587Z,16.51
2022-10-21T22:30:35.128Z,16.52
2022-10-21T22:33:05.967Z,16.59
2022-10-21T22:35:33.579Z,16.65
2022-10-21T22:38:01.168Z,16.60
2022-10-21T22:40:28.763Z,16.59
2022-10-21T22:42:56.725Z,16.58
2022-10-21T22:45:24.443Z,16.64
2022-10-21T22:47:52.017Z,16.63
2022-10-21T22:50:20.974Z,16.59
2022-10-21T22:52:48.514Z,16.67
2022-10-21T22:55:16.323Z,16.63
2022-10-21T22:57:43.939Z,16.72
2022-10-21T23:00:12.698Z,16.75
2022-10-21T23:02:40.494Z,16.75
2022-10-21T23:05:09.009Z,16.72
2022-10-21T23:07:37.998Z,16.71
2022-10-21T23:12:37.173Z,16.53
2022-10-21T23:15:05.568Z,16.65
2022-10-21T23:17:33.509Z,16.80
2022-10-21T23:20:01.234Z,16.68
2022-10-21T23:22:28.866Z,16.72
2022-10-21T23:24:57.817Z,16.77
2022-10-21T23:27:27.158Z,16.64
2022-10-21T23:29:54.870Z,16.68
2022-10-21T23:32:22.544Z,16.79
2022-10-21T23:34:50.165Z,16.76
2022-10-21T23:37:17.914Z,16.79
2022-10-21T23:39:45.526Z,16.84
2022-10-21T23:42:14.431Z,16.82
2022-10-21T23:44:42.112Z,16.81
2022-10-21T23:47:09.765Z,16.82
2022-10-21T23:49:47.465Z,16.81
2022-10-21T23:52:16.491Z,16.76
2022-10-21T23:54:44.131Z,16.74
2022-10-21T23:57:14.202Z,16.73
2022-10-21T23:59:43.528Z,16.64
